createdAt,value
2023-01-10T00:00:01.397Z,5.00
2023-01-10T00:01:23.564Z,4.43
2023-01-10T00:02:45.657Z,7.53
2023-01-10T00:04:07.831Z,5.47
2023-01-10T00:05:29.964Z,5.53
2023-01-10T00:06:52.599Z,6.10
2023-01-10T00:08:16.200Z,5.77
2023-01-10T00:09:38.245Z,6.30
2023-01-10T00:11:20.275Z,5.23
2023-01-10T00:13:00.967Z,5.60
2023-01-10T00:14:23.068Z,5.30
2023-01-10T00:15:45.369Z,5.47
2023-01-10T00:17:07.475Z,5.23
2023-01-10T00:18:29.509Z,5.20
2023-01-10T00:19:51.600Z,5.60
2023-01-10T00:21:14.385Z,5.37
2023-01-10T00:22:36.456Z,6.43
2023-01-10T00:24:01.113Z,5.80
2023-01-10T00:25:23.746Z,5.50
2023-01-10T00:26:53.147Z,5.80
2023-01-10T00:28:22.143Z,5.20
2023-01-10T00:29:44.563Z,5.57
2023-01-10T00:31:08.163Z,5.53
2023-01-10T00:32:30.235Z,5.60
2023-01-10T00:33:52.289Z,5.90
2023-01-10T00:35:14.417Z,5.83
2023-01-10T00:36:36.529Z,5.97
2023-01-10T00:38:05.616Z,5.87
2023-01-10T00:39:27.813Z,5.87
2023-01-10T00:40:49.995Z,5.83
2023-01-10T00:42:30.915Z,5.40
2023-01-10T00:43:59.164Z,6.07
2023-01-10T00:45:22.601Z,5.20
2023-01-10T00:46:44.656Z,5.67
2023-01-10T00:48:06.746Z,5.80
2023-01-10T00:49:28.825Z,5.67
2023-01-10T00:50:51.065Z,5.47
2023-01-10T00:52:13.212Z,6.00
2023-01-10T00:53:35.263Z,5.50
2023-01-10T00:54:57.403Z,5.13
2023-01-10T00:56:19.485Z,5.30
2023-01-10T00:57:41.492Z,4.97
2023-01-10T00:59:04.241Z,6.00
2023-01-10T01:00:26.620Z,5.50
2023-01-10T01:01:49.458Z,5.47
2023-01-10T01:03:11.517Z,5.37
2023-01-10T01:04:34.513Z,7.03
2023-01-10T01:05:56.618Z,5.47
2023-01-10T01:07:18.675Z,5.43
2023-01-10T01:08:40.728Z,5.10
2023-01-10T01:10:21.474Z,6.20
2023-01-10T01:11:43.541Z,5.20
2023-01-10T01:13:12.933Z,5.53
2023-01-10T01:14:35.029Z,5.77
2023-01-10T01:16:00.545Z,5.50
2023-01-10T01:17:22.697Z,5.13
2023-01-10T01:18:44.901Z,5.40
2023-01-10T01:20:07.821Z,5.60
2023-01-10T01:21:29.889Z,6.03
2023-01-10T01:22:51.971Z,5.97
2023-01-10T01:24:14.063Z,5.60
2023-01-10T01:25:36.205Z,5.13
2023-01-10T01:26:58.269Z,4.90
2023-01-10T01:28:21.830Z,5.30
2023-01-10T01:29:44.036Z,5.10
2023-01-10T01:31:10.584Z,5.80
2023-01-10T01:32:32.921Z,5.53
2023-01-10T01:33:55.039Z,4.93
2023-01-10T01:35:17.735Z,6.03
2023-01-10T01:36:39.789Z,6.17
2023-01-10T01:38:01.831Z,4.63
2023-01-10T01:39:24.239Z,5.20
2023-01-10T01:40:46.470Z,5.80
2023-01-10T01:42:30.753Z,5.93
2023-01-10T01:44:02.454Z,5.50
2023-01-10T01:45:24.509Z,5.27
2023-01-10T01:47:08.451Z,5.40
2023-01-10T01:48:41.405Z,5.20
2023-01-10T01:50:05.424Z,5.20
2023-01-10T01:51:30.979Z,6.03
2023-01-10T01:52:56.828Z,5.90
2023-01-10T01:54:19.420Z,5.57
2023-01-10T01:55:43.713Z,5.13
2023-01-10T01:57:10.958Z,6.03
2023-01-10T01:59:02.545Z,6.10
2023-01-10T02:00:24.751Z,5.70
2023-01-10T02:01:50.171Z,5.70
2023-01-10T02:03:13.795Z,6.33
2023-01-10T02:04:48.852Z,6.20
2023-01-10T02:06:11.826Z,6.20
2023-01-10T02:07:40.014Z,5.73
2023-01-10T02:09:27.925Z,6.40
2023-01-10T02:11:05.922Z,6.30
2023-01-10T02:12:30.031Z,5.83
2023-01-10T02:13:53.319Z,5.97
2023-01-10T02:15:17.605Z,5.90
2023-01-10T02:16:39.719Z,6.10
2023-01-10T02:18:03.514Z,5.40
2023-01-10T02:19:43.556Z,5.87
2023-01-10T02:21:17.083Z,6.20
2023-01-10T02:22:54.239Z,6.50
2023-01-10T02:24:40.521Z,6.30
2023-01-10T02:26:08.284Z,5.63
2023-01-10T02:27:38.983Z,5.97
2023-01-10T02:29:19.743Z,8.33
2023-01-10T02:30:53.484Z,6.00
2023-01-10T02:32:42.079Z,7.10
2023-01-10T02:34:33.502Z,6.63
2023-01-10T02:36:15.165Z,6.33
2023-01-10T02:37:52.194Z,6.00
2023-01-10T02:39:17.273Z,7.27
2023-01-10T02:41:09.527Z,6.77
2023-01-10T02:42:42.459Z,6.33
2023-01-10T02:44:25.428Z,6.50
2023-01-10T02:45:55.108Z,7.00
2023-01-10T02:47:17.163Z,6.60
2023-01-10T02:48:39.278Z,7.10
2023-01-10T02:50:28.545Z,7.47
2023-01-10T02:51:50.618Z,7.20
2023-01-10T02:53:24.410Z,6.20
2023-01-10T02:54:47.257Z,6.43
2023-01-10T02:56:21.156Z,6.97
2023-01-10T02:58:24.253Z,6.63
2023-01-10T03:00:09.237Z,7.50
2023-01-10T03:02:10.634Z,7.67
2023-01-10T03:03:56.634Z,8.30
2023-01-10T03:05:43.382Z,7.23
2023-01-10T03:07:15.769Z,9.50
2023-01-10T03:09:21.914Z,7.97
2023-01-10T03:11:01.704Z,9.03
2023-01-10T03:12:57.460Z,8.60
2023-01-10T03:14:23.318Z,8.17
2023-01-10T03:15:48.164Z,9.63
2023-01-10T03:17:13.862Z,8.83
2023-01-10T03:18:57.433Z,8.77
2023-01-10T03:20:21.879Z,10.37
2023-01-10T03:21:44.634Z,9.60
2023-01-10T03:23:07.102Z,9.70
2023-01-10T03:24:35.759Z,9.63
2023-01-10T03:25:58.460Z,9.70
2023-01-10T03:27:40.622Z,9.73
2023-01-10T03:29:07.861Z,9.80
2023-01-10T03:30:40.902Z,9.77
2023-01-10T03:32:05.993Z,9.77
2023-01-10T03:33:30.912Z,9.47
2023-01-10T03:34:54.101Z,10.07
2023-01-10T03:36:38.766Z,9.37
2023-01-10T03:38:10.415Z,9.97
2023-01-10T03:39:51.404Z,12.07
2023-01-10T03:41:29.339Z,10.80
2023-01-10T03:43:19.092Z,10.43
2023-01-10T03:45:06.413Z,9.77
2023-01-10T03:46:37.682Z,10.57
2023-01-10T03:48:05.263Z,10.97
2023-01-10T03:49:28.967Z,11.73
2023-01-10T03:50:52.224Z,11.70
2023-01-10T03:52:17.189Z,11.67
2023-01-10T03:53:39.925Z,11.00
2023-01-10T03:55:03.460Z,11.60
2023-01-10T03:56:25.511Z,13.43
2023-01-10T03:57:48.905Z,11.80
2023-01-10T03:59:11.321Z,12.40
2023-01-10T04:00:33.699Z,14.50
2023-01-10T04:01:56.303Z,12.97
2023-01-10T04:03:18.353Z,12.17
2023-01-10T04:04:40.713Z,11.47
2023-01-10T04:06:04.301Z,12.90
2023-01-10T04:07:27.308Z,12.27
2023-01-10T04:08:49.415Z,13.13
2023-01-10T04:10:11.675Z,13.47
2023-01-10T04:11:33.849Z,13.20
2023-01-10T04:12:59.491Z,12.50
2023-01-10T04:14:21.730Z,13.83
2023-01-10T04:15:43.779Z,12.93
2023-01-10T04:17:06.110Z,13.63
2023-01-10T04:18:28.255Z,14.20
2023-01-10T04:19:50.445Z,12.23
2023-01-10T04:21:12.491Z,12.57
2023-01-10T04:22:34.586Z,13.07
2023-01-10T04:23:56.665Z,13.40
2023-01-10T04:25:18.722Z,13.37
2023-01-10T04:26:40.732Z,13.67
2023-01-10T04:28:02.789Z,13.60
2023-01-10T04:29:24.917Z,14.03
2023-01-10T04:30:46.976Z,14.87
2023-01-10T04:32:09.054Z,13.70
2023-01-10T04:33:31.203Z,14.43
2023-01-10T04:34:53.919Z,13.63
2023-01-10T04:36:15.983Z,14.00
2023-01-10T04:37:38.206Z,14.70
2023-01-10T04:39:00.621Z,14.70
2023-01-10T04:40:23.492Z,15.80
2023-01-10T04:41:45.616Z,15.70
2023-01-10T04:43:07.729Z,14.20
2023-01-10T04:44:29.788Z,14.37
2023-01-10T04:45:52.387Z,14.93
2023-01-10T04:47:14.496Z,14.93
2023-01-10T04:48:37.555Z,15.10
2023-01-10T04:49:59.615Z,14.83
2023-01-10T04:51:22.048Z,14.10
2023-01-10T04:52:44.181Z,15.00
2023-01-10T04:54:06.599Z,13.63
2023-01-10T04:55:28.648Z,17.10
2023-01-10T04:56:50.723Z,15.40
2023-01-10T04:58:12.991Z,15.00
2023-01-10T04:59:35.103Z,15.40
2023-01-10T05:00:57.243Z,16.93
2023-01-10T05:02:19.395Z,14.60
2023-01-10T05:03:41.872Z,16.10
2023-01-10T05:05:03.991Z,15.70
2023-01-10T05:06:26.092Z,15.20
2023-01-10T05:07:48.184Z,14.53
2023-01-10T05:09:10.402Z,16.00
2023-01-10T05:10:32.511Z,14.70
2023-01-10T05:11:55.052Z,16.33
2023-01-10T05:13:17.089Z,14.77
2023-01-10T05:14:39.238Z,16.03
2023-01-10T05:16:01.387Z,15.97
2023-01-10T05:17:23.474Z,16.40
2023-01-10T05:18:45.530Z,15.20
2023-01-10T05:20:08.367Z,14.30
2023-01-10T05:21:30.401Z,15.07
2023-01-10T05:22:52.574Z,15.13
2023-01-10T05:24:14.670Z,15.30
2023-01-10T05:25:36.825Z,13.87
2023-01-10T05:26:58.906Z,14.57
2023-01-10T05:28:21.021Z,13.57
2023-01-10T05:29:43.573Z,13.63
2023-01-10T05:31:07.148Z,15.30
2023-01-10T05:32:29.641Z,14.17
2023-01-10T05:33:52.262Z,13.50
2023-01-10T05:35:14.371Z,13.60
2023-01-10T05:36:36.413Z,15.57
2023-01-10T05:37:58.450Z,13.17
2023-01-10T05:39:21.346Z,15.00
2023-01-10T05:40:43.398Z,16.00
2023-01-10T05:42:05.782Z,15.20
2023-01-10T05:43:28.693Z,16.50
2023-01-10T05:44:50.758Z,14.60
2023-01-10T05:46:12.896Z,15.10
2023-01-10T05:47:34.969Z,17.93
2023-01-10T05:48:56.991Z,15.57
2023-01-10T05:50:19.174Z,16.90
2023-01-10T05:51:42.334Z,15.80
2023-01-10T05:53:05.865Z,15.00
2023-01-10T05:54:29.683Z,14.70
2023-01-10T05:55:59.165Z,14.97
2023-01-10T05:57:22.316Z,15.17
2023-01-10T05:58:47.271Z,15.57
2023-01-10T06:00:12.148Z,14.87
2023-01-10T06:01:34.220Z,16.83
2023-01-10T06:02:57.573Z,15.10
2023-01-10T06:04:19.615Z,17.87
2023-01-10T06:05:41.811Z,16.63
2023-01-10T06:07:03.977Z,16.00
2023-01-10T06:08:26.098Z,15.53
2023-01-10T06:09:48.642Z,14.87
2023-01-10T06:11:10.626Z,16.03
2023-01-10T06:12:32.866Z,16.23
2023-01-10T06:13:55.760Z,15.43
2023-01-10T06:15:17.968Z,15.97
2023-01-10T06:16:41.681Z,14.90
2023-01-10T06:18:04.093Z,15.03
2023-01-10T06:19:26.117Z,15.00
2023-01-10T06:20:48.235Z,14.70
2023-01-10T06:22:10.313Z,15.13
2023-01-10T06:23:32.358Z,15.23
2023-01-10T06:24:55.485Z,13.50
2023-01-10T06:26:18.617Z,13.40
2023-01-10T06:27:41.632Z,13.63
2023-01-10T06:29:03.755Z,14.50
2023-01-10T06:30:25.799Z,13.40
2023-01-10T06:31:47.868Z,13.40
2023-01-10T06:33:11.469Z,12.30
2023-01-10T06:34:34.106Z,13.27
2023-01-10T06:35:56.211Z,13.00
2023-01-10T06:37:20.158Z,13.70
2023-01-10T06:38:42.681Z,11.20
2023-01-10T06:40:05.936Z,12.67
2023-01-10T06:41:28.045Z,10.93
2023-01-10T06:42:51.346Z,11.30
2023-01-10T06:44:13.820Z,11.43
2023-01-10T06:45:35.937Z,12.83
2023-01-10T06:46:58.083Z,11.53
2023-01-10T06:48:20.099Z,12.80
2023-01-10T06:49:42.148Z,12.37
2023-01-10T06:51:05.813Z,11.43
2023-01-10T06:52:27.854Z,12.00
2023-01-10T06:53:49.916Z,13.70
2023-01-10T06:55:12.029Z,12.27
2023-01-10T06:56:34.074Z,13.10
2023-01-10T06:57:57.525Z,12.20
2023-01-10T06:59:19.578Z,12.47
2023-01-10T07:00:41.639Z,12.50
2023-01-10T07:02:03.805Z,12.23
2023-01-10T07:03:25.996Z,12.63
2023-01-10T07:04:51.393Z,11.77
2023-01-10T07:06:13.882Z,12.40
2023-01-10T07:07:35.927Z,12.87
2023-01-10T07:08:58.104Z,13.40
2023-01-10T07:10:20.148Z,11.53
2023-01-10T07:11:42.321Z,11.63
2023-01-10T07:13:04.339Z,12.90
2023-01-10T07:14:26.381Z,12.63
2023-01-10T07:15:48.773Z,12.60
2023-01-10T07:17:11.038Z,12.70
2023-01-10T07:18:37.741Z,11.87
2023-01-10T07:19:59.833Z,12.30
2023-01-10T07:21:21.975Z,11.80
2023-01-10T07:22:44.039Z,13.03
2023-01-10T07:24:06.651Z,12.30
2023-01-10T07:25:30.538Z,12.33
2023-01-10T07:26:55.701Z,13.17
2023-01-10T07:28:17.730Z,10.97
2023-01-10T07:29:39.794Z,11.10
2023-01-10T07:31:03.789Z,11.53
2023-01-10T07:32:26.459Z,12.10
2023-01-10T07:33:48.527Z,12.63
2023-01-10T07:35:10.692Z,10.97
2023-01-10T07:36:32.841Z,11.23
2023-01-10T07:37:58.417Z,11.53
2023-01-10T07:39:20.730Z,9.40
2023-01-10T07:40:44.352Z,11.17
2023-01-10T07:42:06.514Z,11.83
2023-01-10T07:43:28.723Z,10.57
2023-01-10T07:44:51.323Z,11.40
2023-01-10T07:46:13.500Z,11.03
2023-01-10T07:47:35.704Z,13.20
2023-01-10T07:48:57.834Z,10.67
2023-01-10T07:50:19.868Z,11.00
2023-01-10T07:51:41.932Z,10.63
2023-01-10T07:53:06.298Z,10.90
2023-01-10T07:54:28.336Z,10.47
2023-01-10T07:55:50.635Z,10.13
2023-01-10T07:57:12.765Z,11.17
2023-01-10T07:58:35.342Z,10.93
2023-01-10T07:59:57.382Z,10.60
2023-01-10T08:01:19.471Z,9.30
2023-01-10T08:02:41.674Z,10.20
2023-01-10T08:04:03.786Z,9.37
2023-01-10T08:05:26.611Z,9.77
2023-01-10T08:06:48.652Z,10.17
2023-01-10T08:08:12.133Z,9.13
2023-01-10T08:09:34.170Z,10.53
2023-01-10T08:10:57.037Z,9.27
2023-01-10T08:12:19.164Z,10.23
2023-01-10T08:13:41.328Z,9.77
2023-01-10T08:15:03.653Z,8.73
2023-01-10T08:16:25.827Z,8.50
2023-01-10T08:17:48.154Z,9.30
2023-01-10T08:19:12.438Z,8.87
2023-01-10T08:20:34.468Z,8.50
2023-01-10T08:21:56.686Z,8.30
2023-01-10T08:23:19.728Z,8.13
2023-01-10T08:24:41.743Z,9.07
2023-01-10T08:26:06.505Z,7.20
2023-01-10T08:27:28.546Z,8.10
2023-01-10T08:28:50.590Z,8.83
2023-01-10T08:30:13.571Z,8.73
2023-01-10T08:31:35.652Z,8.23
2023-01-10T08:32:58.012Z,8.00
2023-01-10T08:34:20.281Z,8.33
2023-01-10T08:35:43.631Z,8.27
2023-01-10T08:37:05.803Z,7.87
2023-01-10T08:38:27.885Z,7.50
2023-01-10T08:39:49.973Z,7.30
2023-01-10T08:41:12.651Z,7.07
2023-01-10T08:42:35.140Z,6.23
2023-01-10T08:43:57.180Z,6.83
2023-01-10T08:45:19.277Z,6.73
2023-01-10T08:46:42.437Z,8.93
2023-01-10T08:48:05.684Z,6.93
2023-01-10T08:49:27.726Z,7.07
2023-01-10T08:50:49.807Z,6.90
2023-01-10T08:52:12.232Z,7.13
2023-01-10T08:53:34.416Z,5.73
2023-01-10T08:54:56.520Z,6.37
2023-01-10T08:56:18.633Z,6.57
2023-01-10T08:57:40.681Z,6.00
2023-01-10T08:59:02.860Z,6.10
2023-01-10T09:00:24.972Z,6.00
2023-01-10T09:01:47.209Z,6.17
2023-01-10T09:03:09.535Z,5.33
2023-01-10T09:04:33.084Z,5.70
2023-01-10T09:05:55.282Z,5.93
2023-01-10T09:07:17.435Z,5.03
2023-01-10T09:08:39.549Z,5.53
2023-01-10T09:10:01.683Z,6.20
2023-01-10T09:11:23.732Z,5.77
2023-01-10T09:12:54.855Z,5.40
2023-01-10T09:14:16.937Z,5.70
2023-01-10T09:15:39.174Z,6.07
2023-01-10T09:17:01.264Z,5.77
2023-01-10T09:18:23.399Z,5.83
2023-01-10T09:19:45.513Z,5.40
2023-01-10T09:21:07.591Z,4.60
2023-01-10T09:22:29.648Z,4.83
2023-01-10T09:23:51.703Z,4.87
2023-01-10T09:25:13.724Z,6.33
2023-01-10T09:26:35.771Z,4.83
2023-01-10T09:27:59.510Z,4.70
2023-01-10T09:29:21.645Z,5.10
2023-01-10T09:30:44.623Z,4.70
2023-01-10T09:32:07.445Z,4.00
2023-01-10T09:33:35.173Z,4.67
2023-01-10T09:35:03.952Z,4.60
2023-01-10T09:36:26.022Z,4.00
2023-01-10T09:37:48.363Z,3.70
2023-01-10T09:39:10.448Z,3.50
2023-01-10T09:40:50.951Z,3.80
2023-01-10T09:42:28.343Z,3.83
2023-01-10T09:44:01.192Z,3.27
2023-01-10T09:45:51.956Z,3.60
2023-01-10T09:47:51.984Z,3.83
2023-01-10T09:49:38.461Z,3.80
2023-01-10T09:51:23.330Z,4.47
2023-01-10T09:52:51.082Z,3.50
2023-01-10T09:54:26.955Z,4.30
2023-01-10T09:55:55.063Z,4.60
2023-01-10T09:57:19.416Z,4.23
2023-01-10T09:58:42.798Z,4.73
2023-01-10T10:00:08.449Z,4.97
2023-01-10T10:01:37.117Z,4.47
2023-01-10T10:02:59.284Z,4.73
2023-01-10T10:04:33.297Z,4.80
2023-01-10T10:06:03.717Z,4.97
2023-01-10T10:07:32.964Z,4.80
2023-01-10T10:08:56.961Z,4.37
2023-01-10T10:10:24.484Z,5.37
2023-01-10T10:11:50.141Z,4.77
2023-01-10T10:13:39.655Z,4.83
2023-01-10T10:15:10.809Z,4.80
2023-01-10T10:16:45.130Z,4.33
2023-01-10T10:18:29.867Z,5.23
2023-01-10T10:20:10.646Z,4.40
2023-01-10T10:21:50.714Z,4.47
2023-01-10T10:23:27.966Z,5.43
2023-01-10T10:24:58.787Z,4.43
2023-01-10T10:26:35.852Z,4.30
2023-01-10T10:28:09.819Z,4.30
2023-01-10T10:29:56.545Z,4.43
2023-01-10T10:31:51.696Z,4.23
2023-01-10T10:33:23.151Z,5.33
2023-01-10T10:34:57.481Z,5.23
2023-01-10T10:36:24.755Z,4.40
2023-01-10T10:37:51.103Z,4.80
2023-01-10T10:39:19.358Z,4.57
2023-01-10T10:40:44.269Z,3.80
2023-01-10T10:42:13.302Z,4.30
2023-01-10T10:43:39.068Z,4.13
2023-01-10T10:45:05.431Z,4.60
2023-01-10T10:46:27.604Z,4.20
2023-01-10T10:48:07.345Z,4.30
2023-01-10T10:50:00.821Z,3.50
2023-01-10T10:51:38.574Z,4.30
2023-01-10T10:53:05.381Z,4.33
2023-01-10T10:54:27.657Z,3.93
2023-01-10T10:55:50.679Z,3.97
2023-01-10T10:57:13.143Z,3.50
2023-01-10T10:58:35.727Z,4.33
2023-01-10T10:59:58.695Z,3.73
2023-01-10T11:01:21.711Z,4.33
2023-01-10T11:02:49.972Z,4.60
2023-01-10T11:04:16.378Z,4.17
2023-01-10T11:05:46.250Z,3.90
2023-01-10T11:07:12.780Z,4.87
2023-01-10T11:08:45.000Z,4.77
2023-01-10T11:10:15.857Z,4.80
2023-01-10T11:11:46.453Z,4.33
2023-01-10T11:13:23.788Z,5.53
2023-01-10T11:14:48.537Z,3.87
2023-01-10T11:16:33.531Z,4.30
2023-01-10T11:18:22.559Z,4.73
2023-01-10T11:19:58.059Z,4.30
2023-01-10T11:21:22.091Z,4.20
2023-01-10T11:22:49.073Z,4.73
2023-01-10T11:24:33.592Z,4.27
2023-01-10T11:25:56.540Z,5.37
2023-01-10T11:27:45.005Z,4.30
2023-01-10T11:29:21.891Z,4.33
2023-01-10T11:30:48.409Z,4.60
2023-01-10T11:32:20.962Z,4.23
2023-01-10T11:33:43.145Z,4.30
2023-01-10T11:35:17.748Z,4.70
2023-01-10T11:37:02.165Z,4.40
2023-01-10T11:38:29.146Z,4.03
2023-01-10T11:40:07.754Z,5.03
2023-01-10T11:41:34.374Z,3.90
2023-01-10T11:42:59.421Z,3.17
2023-01-10T11:44:27.021Z,4.43
2023-01-10T11:45:57.659Z,4.10
2023-01-10T11:47:20.983Z,3.73
2023-01-10T11:49:08.219Z,4.30
2023-01-10T11:50:34.701Z,3.23
2023-01-10T11:52:06.136Z,3.30
2023-01-10T11:53:41.482Z,3.00
2023-01-10T11:55:08.153Z,4.13
2023-01-10T11:56:33.613Z,3.00
2023-01-10T11:58:09.550Z,3.13
2023-01-10T11:59:32.916Z,3.60
2023-01-10T12:00:56.900Z,3.33
2023-01-10T12:02:24.800Z,3.90
2023-01-10T12:03:47.122Z,3.30
2023-01-10T12:05:20.285Z,3.57
2023-01-10T12:06:48.963Z,3.70
2023-01-10T12:08:30.356Z,4.03
2023-01-10T12:10:00.478Z,3.60
2023-01-10T12:11:27.328Z,3.77
2023-01-10T12:12:58.161Z,3.50
2023-01-10T12:14:20.774Z,3.60
2023-01-10T12:15:43.076Z,4.43
2023-01-10T12:17:05.294Z,4.00
2023-01-10T12:18:27.364Z,4.17
2023-01-10T12:19:55.283Z,3.87
2023-01-10T12:21:21.888Z,3.97
2023-01-10T12:22:51.624Z,3.57
2023-01-10T12:24:36.178Z,3.57
2023-01-10T12:26:11.034Z,3.40
2023-01-10T12:27:34.037Z,3.60
2023-01-10T12:29:00.035Z,3.27
2023-01-10T12:30:46.842Z,4.20
2023-01-10T12:32:18.133Z,3.50
2023-01-10T12:33:51.495Z,3.20
2023-01-10T12:35:25.628Z,3.50
2023-01-10T12:37:32.673Z,4.60
2023-01-10T12:39:19.463Z,4.67
2023-01-10T12:40:50.737Z,4.17
2023-01-10T12:42:31.133Z,3.23
2023-01-10T12:44:11.750Z,3.50
2023-01-10T12:45:54.861Z,3.03
2023-01-10T12:47:48.816Z,3.53
2023-01-10T12:49:31.529Z,2.90
2023-01-10T12:51:07.318Z,3.10
2023-01-10T12:52:52.657Z,3.40
2023-01-10T12:54:19.683Z,3.60
2023-01-10T12:55:45.207Z,4.13
2023-01-10T12:57:30.287Z,4.10
2023-01-10T12:59:36.069Z,4.37
2023-01-10T13:01:00.677Z,3.33
2023-01-10T13:02:27.082Z,4.00
2023-01-10T13:03:56.100Z,4.27
2023-01-10T13:05:24.474Z,3.70
2023-01-10T13:06:46.867Z,3.40
2023-01-10T13:08:18.284Z,3.33
2023-01-10T13:09:42.450Z,3.43
2023-01-10T13:11:06.672Z,3.40
2023-01-10T13:12:42.026Z,3.33
2023-01-10T13:14:06.773Z,3.37
2023-01-10T13:15:32.755Z,3.70
2023-01-10T13:17:02.691Z,4.20
2023-01-10T13:18:27.627Z,3.67
2023-01-10T13:20:23.820Z,3.30
2023-01-10T13:21:46.538Z,3.80
2023-01-10T13:23:30.223Z,3.30
2023-01-10T13:25:00.932Z,3.43
2023-01-10T13:26:23.906Z,3.57
2023-01-10T13:27:46.117Z,3.40
2023-01-10T13:29:12.167Z,3.70
2023-01-10T13:30:40.668Z,2.70
2023-01-10T13:32:15.678Z,3.40
2023-01-10T13:33:54.099Z,3.27
2023-01-10T13:35:18.908Z,3.37
2023-01-10T13:36:48.897Z,4.73
2023-01-10T13:38:20.237Z,3.10
2023-01-10T13:39:48.952Z,3.57
2023-01-10T13:41:30.052Z,3.30
2023-01-10T13:43:34.145Z,4.00
2023-01-10T13:45:04.360Z,3.43
2023-01-10T13:46:26.449Z,3.20
2023-01-10T13:47:57.088Z,3.53
2023-01-10T13:49:26.561Z,3.07
2023-01-10T13:51:06.743Z,3.57
2023-01-10T13:52:33.010Z,3.57
2023-01-10T13:54:01.690Z,3.50
2023-01-10T13:55:42.700Z,4.07
2023-01-10T13:57:43.296Z,4.13
2023-01-10T13:59:43.698Z,4.00
2023-01-10T14:01:40.202Z,3.53
2023-01-10T14:03:02.398Z,3.70
2023-01-10T14:04:34.303Z,3.80
2023-01-10T14:05:56.451Z,3.80
2023-01-10T14:07:27.096Z,5.43
2023-01-10T14:09:05.272Z,3.57
2023-01-10T14:10:31.285Z,4.13
2023-01-10T14:12:00.246Z,4.10
2023-01-10T14:13:23.294Z,4.17
2023-01-10T14:14:57.197Z,4.30
2023-01-10T14:18:07.268Z,4.50
2023-01-10T14:19:32.527Z,4.70
2023-01-10T14:21:01.528Z,5.90
2023-01-10T14:22:32.806Z,3.63
2023-01-10T14:23:57.666Z,4.20
2023-01-10T14:25:21.439Z,3.63
2023-01-10T14:26:45.536Z,4.20
2023-01-10T14:28:37.466Z,3.83
2023-01-10T14:30:01.054Z,4.00
2023-01-10T14:31:25.409Z,4.27
2023-01-10T14:32:51.224Z,4.30
2023-01-10T14:34:22.236Z,4.20
2023-01-10T14:35:47.154Z,4.00
2023-01-10T14:37:28.034Z,3.37
2023-01-10T14:38:55.577Z,3.93
2023-01-10T14:40:29.115Z,3.80
2023-01-10T14:41:54.838Z,3.90
2023-01-10T14:43:20.010Z,3.90
2023-01-10T14:44:46.716Z,3.87
2023-01-10T14:46:16.011Z,3.67
2023-01-10T14:47:39.034Z,3.63
2023-01-10T14:49:01.200Z,4.47
2023-01-10T14:50:32.671Z,3.33
2023-01-10T14:52:10.570Z,3.80
2023-01-10T14:53:32.686Z,3.80
2023-01-10T14:55:03.927Z,3.50
2023-01-10T14:56:37.051Z,4.17
2023-01-10T14:58:02.268Z,4.00
2023-01-10T14:59:28.568Z,3.20
2023-01-10T15:00:53.646Z,4.00
2023-01-10T15:02:25.641Z,3.80
2023-01-10T15:03:48.036Z,4.17
2023-01-10T15:05:26.088Z,4.43
2023-01-10T15:07:12.914Z,3.80
2023-01-10T15:08:35.320Z,3.80
2023-01-10T15:10:02.687Z,3.60
2023-01-10T15:11:26.474Z,3.60
2023-01-10T15:12:50.630Z,3.97
2023-01-10T15:14:17.787Z,3.37
2023-01-10T15:15:40.977Z,3.97
2023-01-10T15:17:06.314Z,3.80
2023-01-10T15:18:39.077Z,3.80
2023-01-10T15:20:01.899Z,4.30
2023-01-10T15:21:25.723Z,5.30
2023-01-10T15:22:54.354Z,4.33
2023-01-10T15:24:37.155Z,4.00
2023-01-10T15:26:02.917Z,3.63
2023-01-10T15:27:25.992Z,4.40
2023-01-10T15:29:12.609Z,3.90
2023-01-10T15:30:38.429Z,4.13
2023-01-10T15:32:39.375Z,4.00
2023-01-10T15:34:01.495Z,4.07
2023-01-10T15:35:35.424Z,3.83
2023-01-10T15:37:00.446Z,3.80
2023-01-10T15:38:27.317Z,4.07
2023-01-10T15:39:49.787Z,4.67
2023-01-10T15:41:21.125Z,4.43
2023-01-10T15:42:43.196Z,3.93
2023-01-10T15:44:45.293Z,4.60
2023-01-10T15:46:21.672Z,4.00
2023-01-10T15:47:49.461Z,4.40
2023-01-10T15:49:32.830Z,4.10
2023-01-10T15:51:27.368Z,5.03
2023-01-10T15:52:52.228Z,4.63
2023-01-10T15:54:20.123Z,4.20
2023-01-10T15:55:47.537Z,4.57
2023-01-10T15:57:19.693Z,4.33
2023-01-10T15:58:43.566Z,5.20
2023-01-10T16:00:06.251Z,3.97
2023-01-10T16:01:29.356Z,3.77
2023-01-10T16:02:51.869Z,4.17
2023-01-10T16:04:15.103Z,4.93
2023-01-10T16:05:37.235Z,5.17
2023-01-10T16:07:21.028Z,5.13
2023-01-10T16:08:49.579Z,5.43
2023-01-10T16:10:23.843Z,5.13
2023-01-10T16:12:09.484Z,4.97
2023-01-10T16:13:33.158Z,4.40
2023-01-10T16:14:56.724Z,6.23
2023-01-10T16:16:20.324Z,4.80
2023-01-10T16:17:42.394Z,4.33
2023-01-10T16:19:04.703Z,3.77
2023-01-10T16:20:30.656Z,5.17
2023-01-10T16:21:59.140Z,5.20
2023-01-10T16:23:24.674Z,4.50
2023-01-10T16:24:47.564Z,4.33
2023-01-10T16:26:09.849Z,4.43
2023-01-10T16:27:32.027Z,4.70
2023-01-10T16:28:54.176Z,5.27
2023-01-10T16:30:28.473Z,4.23
2023-01-10T16:31:52.349Z,4.70
2023-01-10T16:33:23.295Z,4.70
2023-01-10T16:34:45.439Z,4.83
2023-01-10T16:36:17.454Z,5.23
2023-01-10T16:37:39.521Z,5.40
2023-01-10T16:39:16.981Z,5.10
2023-01-10T16:40:42.432Z,5.43
2023-01-10T16:42:23.150Z,5.50
2023-01-10T16:43:45.206Z,4.13
2023-01-10T16:45:07.743Z,5.03
2023-01-10T16:46:30.924Z,4.13
2023-01-10T16:47:53.044Z,3.93
2023-01-10T16:49:15.780Z,4.23
2023-01-10T16:50:38.487Z,4.47
2023-01-10T16:52:00.719Z,4.40
2023-01-10T16:53:22.774Z,3.87
2023-01-10T16:54:45.087Z,4.50
2023-01-10T16:56:12.079Z,4.50
2023-01-10T16:57:34.199Z,5.33
2023-01-10T16:58:57.081Z,4.30
2023-01-10T17:00:20.283Z,4.67
2023-01-10T17:01:46.663Z,5.40
2023-01-10T17:03:12.985Z,4.10
2023-01-10T17:04:35.803Z,4.27
2023-01-10T17:05:57.894Z,4.47
2023-01-10T17:07:20.066Z,5.07
2023-01-10T17:08:43.277Z,3.90
2023-01-10T17:10:05.832Z,4.10
2023-01-10T17:11:35.884Z,4.43
2023-01-10T17:12:58.380Z,3.97
2023-01-10T17:14:20.638Z,3.73
2023-01-10T17:15:42.781Z,3.87
2023-01-10T17:17:05.496Z,3.50
2023-01-10T17:18:28.682Z,3.57
2023-01-10T17:19:50.876Z,4.07
2023-01-10T17:21:18.819Z,5.27
2023-01-10T17:22:42.349Z,4.07
2023-01-10T17:24:04.839Z,3.70
2023-01-10T17:25:27.051Z,4.67
2023-01-10T17:26:49.247Z,4.40
2023-01-10T17:28:12.398Z,4.20
2023-01-10T17:29:35.397Z,4.63
2023-01-10T17:30:58.002Z,4.23
2023-01-10T17:32:20.094Z,3.87
2023-01-10T17:33:42.284Z,4.80
2023-01-10T17:35:05.039Z,5.43
2023-01-10T17:36:29.925Z,4.37
2023-01-10T17:37:52.068Z,4.13
2023-01-10T17:39:14.110Z,3.77
2023-01-10T17:40:43.057Z,4.17
2023-01-10T17:42:06.638Z,3.90
2023-01-10T17:43:29.782Z,4.60
2023-01-10T17:44:51.881Z,4.97
2023-01-10T17:46:16.457Z,4.70
2023-01-10T17:47:38.546Z,5.07
2023-01-10T17:49:02.514Z,5.07
2023-01-10T17:50:24.890Z,4.40
2023-01-10T17:51:46.999Z,3.80
2023-01-10T17:53:09.745Z,4.57
2023-01-10T17:54:31.845Z,3.90
2023-01-10T17:55:54.228Z,4.70
2023-01-10T17:57:16.498Z,3.93
2023-01-10T17:58:38.734Z,4.50
2023-01-10T18:00:00.867Z,4.53
2023-01-10T18:01:25.741Z,3.90
2023-01-10T18:02:48.668Z,4.10
2023-01-10T18:04:11.313Z,4.00
2023-01-10T18:05:35.098Z,4.37
2023-01-10T18:06:57.141Z,4.63
2023-01-10T18:08:19.929Z,3.63
2023-01-10T18:09:42.025Z,3.93
2023-01-10T18:11:04.257Z,4.77
2023-01-10T18:12:26.423Z,4.83
2023-01-10T18:13:48.569Z,5.47
2023-01-10T18:15:11.087Z,4.77
2023-01-10T18:16:34.311Z,5.77
2023-01-10T18:17:56.489Z,4.87
2023-01-10T18:19:18.561Z,5.47
2023-01-10T18:20:42.210Z,4.60
2023-01-10T18:22:24.624Z,4.53
2023-01-10T18:23:47.635Z,4.00
2023-01-10T18:25:09.841Z,4.23
2023-01-10T18:26:31.901Z,5.20
2023-01-10T18:27:55.302Z,5.03
2023-01-10T18:29:17.415Z,4.47
2023-01-10T18:30:40.400Z,4.87
2023-01-10T18:32:02.530Z,6.53
2023-01-10T18:33:24.644Z,4.50
2023-01-10T18:34:49.411Z,4.80
2023-01-10T18:36:19.663Z,5.10
2023-01-10T18:37:41.862Z,5.60
2023-01-10T18:39:04.510Z,5.43
2023-01-10T18:40:26.871Z,5.40
2023-01-10T18:41:49.022Z,4.60
2023-01-10T18:43:16.935Z,5.10
2023-01-10T18:44:39.288Z,5.50
2023-01-10T18:46:06.686Z,5.17
2023-01-10T18:47:28.851Z,5.30
2023-01-10T18:48:52.809Z,5.00
2023-01-10T18:50:15.048Z,5.30
2023-01-10T18:51:37.146Z,5.47
2023-01-10T18:52:59.787Z,5.27
2023-01-10T18:54:21.933Z,6.50
2023-01-10T18:55:56.168Z,6.10
2023-01-10T18:57:19.488Z,5.37
2023-01-10T18:58:42.686Z,6.20
2023-01-10T19:00:06.232Z,5.47
2023-01-10T19:01:29.392Z,7.17
2023-01-10T19:02:54.108Z,5.70
2023-01-10T19:04:17.428Z,7.00
2023-01-10T19:05:39.616Z,6.47
2023-01-10T19:07:01.703Z,7.70
2023-01-10T19:08:23.812Z,6.60
2023-01-10T19:09:45.925Z,7.43
2023-01-10T19:11:14.377Z,6.87
2023-01-10T19:12:40.494Z,6.93